Time;durP1;ratioP1;P1;durP2;ratioP2;P2;SDS_P1;SDS_P2;PMS_P1;PMS_P2;Temp;Humidity;BMP_temperature;BMP_pressure;BME280_temperature;BME280_humidity;BME280_pressure;Samples;Min_cycle;Max_cycle;Signal;HPM_P1;HPM_P2
2023/01/08 00:01:12;;;;;;;4.90;1.75;;;10.50;99.90;;;-144.05;64.27;125687.94;5052449;28;20038;-78
2023/01/08 00:03:39;;;;;;;4.13;1.73;;;10.60;99.90;;;-144.05;64.34;125687.94;5036868;28;20073;-77
2023/01/08 00:06:12;;;;;;;2.60;1.80;;;10.50;99.90;;;-144.05;64.39;125687.94;5035622;28;20025;-79
2023/01/08 00:08:38;;;;;;;2.70;1.50;;;10.50;99.90;;;-144.05;64.87;125687.94;5035605;28;20393;-78
2023/01/08 00:11:05;;;;;;;3.08;1.63;;;10.50;99.90;;;-144.05;64.87;125687.94;5035930;28;20097;-78
2023/01/08 00:13:31;;;;;;;3.83;1.58;;;10.50;99.90;;;-144.05;65.41;125687.94;5034403;28;20025;-77
2023/01/08 00:16:03;;;;;;;2.15;1.52;;;10.50;99.90;;;-144.05;65.96;125687.94;5033510;28;20033;-78
2023/01/08 00:18:29;;;;;;;4.80;1.83;;;10.50;99.90;;;-144.05;66.16;125687.94;5050780;28;20100;-78
2023/01/08 00:20:55;;;;;;;3.47;1.42;;;10.50;99.90;;;-144.05;66.36;125687.94;5034894;28;20095;-78
2023/01/08 00:23:21;;;;;;;2.40;1.30;;;10.50;99.90;;;-144.05;66.83;125687.94;5036114;28;20025;-77
2023/01/08 00:25:47;;;;;;;2.97;1.30;;;10.40;99.90;;;-144.05;66.93;125687.94;5034296;28;20048;-78
2023/01/08 00:28:13;;;;;;;2.13;1.38;;;10.40;99.90;;;-144.05;66.97;125687.94;5035798;28;20026;-79
2023/01/08 00:30:39;;;;;;;3.78;1.50;;;10.40;99.90;;;-144.05;66.71;125687.94;5051495;28;20021;-79
2023/01/08 00:33:05;;;;;;;2.63;1.40;;;10.40;99.90;;;-144.05;67.60;125687.94;5036605;28;20393;-78
2023/01/08 00:35:31;;;;;;;3.22;1.52;;;10.40;99.90;;;-144.05;67.31;125687.94;5036443;28;20037;-78
2023/01/08 00:37:57;;;;;;;2.50;1.20;;;10.40;99.90;;;-144.05;67.91;125687.94;5036291;28;20028;-76
2023/01/08 00:40:23;;;;;;;2.75;1.70;;;10.40;99.90;;;-144.05;67.83;125687.94;5034722;28;20512;-76
2023/01/08 00:42:49;;;;;;;3.10;1.60;;;10.30;99.90;;;-144.05;67.83;125687.94;5035060;28;20105;-79
2023/01/08 00:45:15;;;;;;;3.00;1.67;;;10.30;99.90;;;-144.05;67.38;125687.94;5036108;28;20071;-77
2023/01/08 00:47:42;;;;;;;1.85;1.52;;;10.30;99.90;;;-144.05;67.84;125687.94;5036433;28;20036;-76
2023/01/08 00:50:08;;;;;;;2.53;1.50;;;10.30;99.90;;;-144.05;67.91;125687.94;5034844;28;20117;-76
2023/01/08 00:52:34;;;;;;;1.92;1.45;;;10.30;99.90;;;-144.05;68.44;125687.94;5034202;28;20484;-76
2023/01/08 00:55:00;;;;;;;1.80;1.30;;;10.30;99.90;;;-144.05;68.35;125687.94;5035387;28;20086;-79
2023/01/08 00:57:26;;;;;;;2.40;1.30;;;10.30;99.90;;;-144.05;67.89;125687.94;5034986;28;20029;-79
2023/01/08 00:59:51;;;;;;;1.92;1.20;;;10.20;99.90;;;-144.05;68.07;125687.94;5036017;28;20044;-77
2023/01/08 01:02:17;;;;;;;2.65;1.30;;;10.30;99.90;;;-144.05;67.96;125687.94;5051592;28;20056;-77
2023/01/08 01:04:43;;;;;;;5.03;1.63;;;10.30;99.90;;;-144.05;68.24;125687.94;5050417;28;20025;-79
2023/01/08 01:07:09;;;;;;;2.20;1.30;;;10.30;99.90;;;-144.05;68.26;125687.94;5036125;28;20109;-80
2023/01/08 01:09:35;;;;;;;2.85;1.25;;;10.30;99.90;;;-144.05;67.95;125687.94;5034620;28;20031;-77
2023/01/08 01:12:01;;;;;;;1.80;1.30;;;10.30;99.90;;;-144.05;67.59;125687.94;5035866;28;20120;-79
2023/01/08 01:14:26;;;;;;;1.80;1.30;;;10.20;99.90;;;-144.05;67.78;125687.94;5036203;28;20057;-77
2023/01/08 01:16:52;;;;;;;1.90;1.30;;;10.30;99.90;;;-144.05;67.56;125687.94;5035634;28;20029;-78
2023/01/08 01:19:18;;;;;;;1.73;1.20;;;10.30;99.90;;;-144.05;67.84;125687.94;5035333;28;20087;-79
2023/01/08 01:21:44;;;;;;;2.90;1.48;;;10.20;99.90;;;-144.05;67.84;125687.94;5035809;28;20026;-78
2023/01/08 01:24:12;;;;;;;2.20;1.42;;;10.20;99.90;;;-144.05;67.76;125687.94;5035598;28;20028;-77
2023/01/08 01:26:38;;;;;;;1.90;1.33;;;10.20;99.90;;;-144.05;68.05;125687.94;5034257;28;20033;-78
2023/01/08 01:29:05;;;;;;;1.75;1.52;;;10.20;99.90;;;-144.05;67.79;125687.94;5033424;28;20086;-78
2023/01/08 01:31:33;;;;;;;2.15;1.33;;;10.30;99.90;;;-144.05;67.86;125687.94;5050617;28;20022;-78
2023/01/08 01:33:59;;;;;;;4.18;1.63;;;10.30;99.90;;;-144.05;67.51;125687.94;5035587;28;20029;-77
2023/01/08 01:36:26;;;;;;;2.60;1.30;;;10.30;99.90;;;-144.05;67.65;125687.94;5035821;28;20038;-79
2023/01/08 01:38:55;;;;;;;1.45;0.93;;;10.30;99.90;;;-144.05;67.52;125687.94;5033448;28;20040;-79
2023/01/08 01:41:30;;;;;;;3.15;1.60;;;10.20;99.90;;;-144.05;67.41;125687.94;5035962;28;20029;-77
2023/01/08 01:44:37;;;;;;;2.17;1.15;;;10.30;99.90;;;-144.05;67.51;125687.94;5035414;28;20026;-78
2023/01/08 01:47:32;;;;;;;;;;;10.30;99.90;;;-144.05;67.25;125687.94;5034701;28;20385;-77
2023/01/08 01:51:00;;;;;;;1.42;1.10;;;10.30;99.90;;;-144.05;67.24;125687.94;5037405;28;19909;-77
2023/01/08 01:53:36;;;;;;;1.75;1.10;;;10.40;99.90;;;-144.05;66.75;125687.94;4992476;28;20072;-77
2023/01/08 01:56:03;;;;;;;2.15;1.23;;;10.40;99.90;;;-144.05;67.19;125687.94;5034995;28;20420;-77
2023/01/08 01:58:31;;;;;;;2.75;1.27;;;10.40;99.90;;;-144.05;66.83;125687.94;5033929;28;20032;-77
2023/01/08 02:01:05;;;;;;;2.42;1.33;;;10.40;99.90;;;-144.05;67.20;125687.94;5035097;28;20033;-78
2023/01/08 02:03:39;;;;;;;1.63;1.33;;;10.40;99.90;;;-144.05;67.07;125687.94;5035497;28;20056;-79
2023/01/08 02:06:45;;;;;;;2.25;1.15;;;10.40;99.90;;;-144.05;67.66;125687.94;5035445;28;20033;-78
2023/01/08 02:09:49;;;;;;;3.97;1.40;;;10.40;99.90;;;-144.05;67.62;125687.94;5032413;28;20388;-78
2023/01/08 02:12:50;;;;;;;1.38;1.15;;;10.40;99.90;;;-144.05;67.51;125687.94;5048076;28;20389;-79
2023/01/08 02:15:31;;;;;;;1.75;1.25;;;10.40;99.90;;;-144.05;66.71;125687.94;5049031;28;20033;-78
2023/01/08 02:18:19;;;;;;;3.42;1.20;;;10.50;99.90;;;-144.05;66.89;125687.94;5034266;28;20338;-77
2023/01/08 02:21:18;;;;;;;1.60;1.20;;;10.50;99.90;;;-144.05;67.07;125687.94;5033588;28;20037;-80
2023/01/08 02:25:00;;;;;;;3.35;1.20;;;10.50;99.90;;;-144.05;67.20;125687.94;5029484;28;20105;-78
2023/01/08 02:27:32;;;;;;;4.68;2.08;;;10.50;99.90;;;-144.05;66.96;125687.94;5033365;28;20034;-77
2023/01/08 02:30:02;;;;;;;2.92;1.30;;;10.50;99.90;;;-144.05;67.08;125687.94;5033933;28;20108;-79
2023/01/08 02:32:37;;;;;;;2.25;1.35;;;10.50;99.90;;;-144.05;67.49;125687.94;5034206;28;20477;-79
2023/01/08 02:35:06;;;;;;;2.25;1.35;;;10.50;99.90;;;-144.05;68.10;125687.94;5034513;28;20033;-78
2023/01/08 02:37:34;;;;;;;2.53;1.20;;;10.50;99.90;;;-144.05;68.87;125687.94;5032614;28;20416;-78
2023/01/08 02:40:15;;;;;;;2.25;1.60;;;10.40;99.90;;;-144.05;69.26;125687.94;5032517;28;20029;-77
2023/01/08 02:43:01;;;;;;;1.77;1.52;;;10.30;99.90;;;-144.05;70.09;125687.94;5031849;28;20075;-77
2023/01/08 02:45:49;;;;;;;2.45;1.58;;;10.20;99.90;;;-144.05;71.01;125687.94;5031847;28;20033;-80
2023/01/08 02:48:46;;;;;;;3.15;1.83;;;10.20;99.90;;;-144.05;70.82;125687.94;5048827;28;20103;-78
2023/01/08 02:51:29;;;;;;;;;;;10.20;99.90;;;-144.05;71.17;125687.94;5031736;28;20037;-78
2023/01/08 02:54:09;;;;;;;2.92;1.92;;;10.10;99.90;;;-144.05;71.79;125687.94;5032911;28;19931;-78
2023/01/08 02:56:45;;;;;;;2.08;1.48;;;10.10;99.90;;;-144.05;71.43;125687.94;5050461;28;20029;-81
2023/01/08 02:59:15;;;;;;;3.80;1.88;;;10.10;99.90;;;-144.05;71.48;125687.94;5040839;28;20037;-76
2023/01/08 03:01:44;;;;;;;1.90;1.38;;;10.00;99.90;;;-144.05;72.41;125687.94;5032381;28;20029;-77
2023/01/08 03:04:19;;;;;;;2.42;1.58;;;9.90;99.90;;;-144.05;71.83;125687.94;5031318;28;20404;-78
2023/01/08 03:06:45;;;;;;;2.47;1.60;;;9.90;99.90;;;-144.05;71.72;125687.94;5032853;28;20080;-78
2023/01/08 03:09:14;;;;;;;1.95;1.30;;;9.90;99.90;;;-144.05;71.91;125687.94;5032417;28;20424;-78
2023/01/08 03:12:03;;;;;;;2.75;1.63;;;9.90;99.90;;;-144.05;72.48;125687.94;5033315;28;20030;-78
2023/01/08 03:15:08;;;;;;;3.90;1.60;;;9.90;99.90;;;-144.05;72.33;125687.94;5033169;28;20026;-78
2023/01/08 03:17:47;;;;;;;3.08;1.55;;;9.90;99.90;;;-144.05;72.64;125687.94;5031093;28;20040;-78
2023/01/08 03:20:22;;;;;;;2.50;1.50;;;9.80;99.90;;;-144.05;72.77;125687.94;5048445;28;20030;-76
2023/01/08 03:22:59;;;;;;;2.85;1.60;;;9.90;99.90;;;-144.05;72.72;125687.94;5032973;28;20442;-78
2023/01/08 03:25:29;;;;;;;3.70;1.45;;;9.80;99.90;;;-144.05;72.52;125687.94;5033234;28;20040;-76
2023/01/08 03:28:06;;;;;;;3.22;1.55;;;9.90;99.90;;;-144.05;72.08;125687.94;5034492;28;20099;-77
2023/01/08 03:30:35;;;;;;;2.97;1.67;;;9.80;99.90;;;-144.05;72.41;125687.94;5032777;28;20025;-76
2023/01/08 03:33:06;;;;;;;8.30;1.88;;;9.80;99.90;;;-144.05;72.56;125687.94;5039942;28;20029;-78
2023/01/08 03:35:37;;;;;;;5.78;2.35;;;9.80;99.90;;;-144.05;72.98;125687.94;5033732;28;20037;-78
2023/01/08 03:38:17;;;;;;;4.43;1.88;;;9.80;99.90;;;-144.05;72.66;125687.94;5032595;28;20026;-78
2023/01/08 03:40:54;;;;;;;3.88;2.03;;;9.80;99.90;;;-144.05;73.39;125687.94;5033659;28;20030;-78
2023/01/08 03:46:06;;;;;;;4.22;1.48;;;9.90;99.90;;;-144.05;72.90;125687.94;5030232;28;20061;-79
2023/01/08 03:48:37;;;;;;;4.53;1.58;;;9.90;99.90;;;-144.05;72.78;125687.94;5031252;28;20036;-79
2023/01/08 03:51:08;;;;;;;4.57;1.77;;;9.80;99.90;;;-144.05;72.61;125687.94;5034228;28;20041;-81
2023/01/08 03:53:35;;;;;;;4.03;1.90;;;9.80;99.90;;;-144.05;73.24;125687.94;5019365;28;20026;-78
2023/01/08 03:56:01;;;;;;;4.82;2.03;;;9.80;99.90;;;-144.05;73.28;125687.94;5016275;28;20033;-80
2023/01/08 03:58:27;;;;;;;3.80;1.90;;;9.80;99.90;;;-144.05;73.89;125687.94;5015704;28;20133;-81
2023/01/08 04:00:52;;;;;;;2.60;1.58;;;9.80;99.90;;;-144.05;73.12;125687.94;5015559;28;20046;-80
2023/01/08 04:03:18;;;;;;;2.92;1.65;;;9.90;99.90;;;-144.05;73.38;125687.94;5014867;28;20030;-79
2023/01/08 04:05:44;;;;;;;2.20;1.70;;;9.80;99.90;;;-144.05;73.55;125687.94;5015012;28;20029;-79
2023/01/08 04:08:10;;;;;;;3.55;1.40;;;9.80;99.90;;;-144.05;73.59;125687.94;5015801;28;20030;-79
2023/01/08 04:10:36;;;;;;;3.88;1.48;;;9.80;99.90;;;-144.05;73.35;125687.94;5016305;28;20488;-80
2023/01/08 04:13:02;;;;;;;2.05;1.45;;;9.80;99.90;;;-144.05;73.34;125687.94;5032686;28;20033;-79
2023/01/08 04:15:28;;;;;;;2.17;1.27;;;9.80;99.90;;;-144.05;73.28;125687.94;5026449;28;20037;-81
2023/01/08 04:17:54;;;;;;;5.43;1.70;;;9.80;99.90;;;-144.05;73.21;125687.94;5016501;28;20113;-81
2023/01/08 04:20:20;;;;;;;1.67;1.25;;;9.90;99.90;;;-144.05;73.27;125687.94;5014513;28;20064;-81
2023/01/08 04:22:46;;;;;;;2.95;1.60;;;9.90;99.90;;;-144.05;73.07;125687.94;5016079;28;20034;-80
2023/01/08 04:25:11;;;;;;;2.13;1.10;;;9.90;99.90;;;-144.05;72.76;125687.94;5016050;28;20081;-80
2023/01/08 04:27:37;;;;;;;1.77;1.45;;;9.90;99.90;;;-144.05;73.24;125687.94;5015749;28;20034;-81
2023/01/08 04:30:05;;;;;;;4.35;1.70;;;9.90;99.90;;;-144.05;72.96;125687.94;5015369;28;20030;-81
2023/01/08 04:32:30;;;;;;;2.30;1.40;;;9.90;99.90;;;-144.05;72.86;125687.94;5015181;28;20186;-81
2023/01/08 04:34:56;;;;;;;3.42;1.38;;;10.00;99.90;;;-144.05;72.35;125687.94;5015938;28;20052;-79
2023/01/08 04:37:22;;;;;;;2.15;1.00;;;10.00;99.90;;;-144.05;72.73;125687.94;5015387;28;20092;-80
2023/01/08 04:39:48;;;;;;;1.27;1.15;;;10.00;99.90;;;-144.05;72.88;125687.94;5015417;28;20030;-81
2023/01/08 04:42:14;;;;;;;3.08;1.40;;;10.00;99.90;;;-144.05;72.51;125687.94;5014245;28;20034;-79
2023/01/08 04:44:39;;;;;;;3.10;1.77;;;10.00;99.90;;;-144.05;72.34;125687.94;5014243;28;20069;-79
2023/01/08 04:47:05;;;;;;;1.27;1.02;;;10.10;99.90;;;-144.05;72.58;125687.94;5014349;28;20057;-78
2023/01/08 04:49:31;;;;;;;2.63;1.42;;;10.10;99.90;;;-144.05;72.16;125687.94;5013750;28;20156;-79
2023/01/08 04:51:57;;;;;;;2.42;1.50;;;10.10;99.90;;;-144.05;72.14;125687.94;4996068;28;20544;-79
2023/01/08 04:54:23;;;;;;;1.35;1.13;;;10.00;99.90;;;-144.05;72.43;125687.94;4996313;28;20112;-79
2023/01/08 04:56:52;;;;;;;1.83;1.20;;;10.10;99.90;;;-144.05;72.11;125687.94;5013630;28;20030;-79
2023/01/08 04:59:18;;;;;;;1.58;1.35;;;10.00;99.90;;;-144.05;71.87;125687.94;5013398;28;20105;-79
2023/01/08 05:01:44;;;;;;;1.90;1.50;;;10.00;99.90;;;-144.05;72.04;125687.94;5013947;28;20033;-79
2023/01/08 05:04:10;;;;;;;2.45;1.55;;;10.00;99.90;;;-144.05;72.27;125687.94;5013872;28;20030;-80
2023/01/08 05:06:36;;;;;;;1.60;1.02;;;10.00;99.90;;;-144.05;72.23;125687.94;5013586;28;20054;-79
2023/01/08 05:09:03;;;;;;;1.80;1.30;;;10.00;99.90;;;-144.05;72.48;125687.94;4995581;28;20111;-79
2023/01/08 05:11:28;;;;;;;2.58;1.20;;;10.00;99.90;;;-144.05;72.50;125687.94;5013235;28;20157;-80
2023/01/08 05:13:55;;;;;;;3.08;1.20;;;10.00;99.90;;;-144.05;73.00;125687.94;5013664;28;20460;-79
2023/01/08 05:16:22;;;;;;;1.85;1.27;;;10.00;99.90;;;-144.05;74.08;125687.94;5013422;28;20030;-80
2023/01/08 05:18:48;;;;;;;1.58;1.23;;;10.00;99.90;;;-144.05;73.62;125687.94;5013052;28;20037;-80
2023/01/08 05:21:15;;;;;;;3.33;1.25;;;9.90;99.90;;;-144.05;73.90;125687.94;5013223;28;20034;-80
2023/01/08 05:23:47;;;;;;;1.88;0.95;;;9.90;99.90;;;-144.05;73.64;125687.94;5012224;28;20030;-81
2023/01/08 05:26:14;;;;;;;1.98;1.00;;;9.80;99.90;;;-144.05;74.02;125687.94;5013800;28;20026;-80
2023/01/08 05:28:40;;;;;;;2.22;0.98;;;9.80;99.90;;;-144.05;73.96;125687.94;5012108;28;20030;-81
2023/01/08 05:31:06;;;;;;;1.48;1.00;;;9.80;99.90;;;-144.05;74.01;125687.94;5013444;28;20478;-79
2023/01/08 05:33:32;;;;;;;1.60;0.93;;;9.80;99.90;;;-144.05;73.61;125687.94;5013591;28;20038;-79
2023/01/08 05:35:58;;;;;;;1.58;1.00;;;9.80;99.90;;;-144.05;73.26;125687.94;5013977;28;20485;-81
2023/01/08 05:38:24;;;;;;;1.58;1.00;;;9.70;99.90;;;-144.05;72.78;125687.94;5012135;28;20025;-79
2023/01/08 05:40:53;;;;;;;1.65;1.20;;;9.70;99.90;;;-144.05;72.99;125687.94;5011969;28;20034;-80
2023/01/08 05:43:19;;;;;;;1.38;0.80;;;9.70;99.90;;;-144.05;73.31;125687.94;5013160;28;20422;-81
2023/01/08 05:45:44;;;;;;;2.22;0.98;;;9.80;99.90;;;-144.05;72.85;125687.94;5014789;28;20046;-77
2023/01/08 05:48:10;;;;;;;2.17;1.17;;;9.70;99.90;;;-144.05;73.25;125687.94;4995269;28;20136;-81
2023/01/08 05:50:36;;;;;;;1.20;1.10;;;9.70;99.90;;;-144.05;72.96;125687.94;5012740;28;20362;-82
2023/01/08 05:53:07;;;;;;;1.60;1.30;;;9.70;99.90;;;-144.05;73.21;125687.94;4995552;28;20033;-80
2023/01/08 05:55:34;;;;;;;3.33;0.82;;;9.70;99.90;;;-144.05;72.34;125687.94;5011717;28;20033;-80
2023/01/08 05:58:03;;;;;;;1.35;0.80;;;9.70;99.90;;;-144.05;73.02;125687.94;5012758;28;20034;-80
2023/01/08 06:00:31;;;;;;;1.20;0.90;;;9.70;99.90;;;-144.05;72.90;125687.94;5011541;28;20034;-79
2023/01/08 06:02:57;;;;;;;0.80;0.80;;;9.80;99.90;;;-144.05;72.29;125687.94;5011462;28;20073;-81
2023/01/08 06:05:23;;;;;;;1.17;0.98;;;9.80;99.90;;;-144.05;72.33;125687.94;4995291;28;20247;-80
2023/01/08 06:07:49;;;;;;;3.10;0.80;;;9.90;99.90;;;-144.05;71.75;125687.94;4995074;28;20026;-81
2023/01/08 06:10:15;;;;;;;1.27;0.93;;;9.90;99.90;;;-144.05;72.25;125687.94;4995615;28;20028;-79
2023/01/08 06:12:41;;;;;;;1.80;0.90;;;9.90;99.90;;;-144.05;72.00;125687.94;4996050;28;20393;-80
2023/01/08 06:15:10;;;;;;;1.15;0.80;;;9.90;99.90;;;-144.05;71.50;125687.94;5015447;28;20038;-79
2023/01/08 06:17:35;;;;;;;0.90;0.70;;;9.90;99.90;;;-144.05;71.21;125687.94;4997376;28;20127;-80
2023/01/08 06:20:02;;;;;;;0.60;0.60;;;9.90;99.90;;;-144.05;71.30;125687.94;4995932;28;20091;-80
2023/01/08 06:22:28;;;;;;;3.55;0.90;;;9.90;99.90;;;-144.05;71.63;125687.94;5018229;28;20030;-79
2023/01/08 06:24:54;;;;;;;1.00;0.80;;;9.80;99.90;;;-144.05;71.97;125687.94;5016888;28;20041;-79
2023/01/08 06:27:20;;;;;;;1.70;0.90;;;9.80;99.90;;;-144.05;71.95;125687.94;5014296;28;20046;-79
2023/01/08 06:29:46;;;;;;;2.13;1.10;;;9.80;99.90;;;-144.05;72.33;125687.94;5013430;28;20109;-79
2023/01/08 06:32:11;;;;;;;2.05;0.90;;;9.80;99.90;;;-144.05;71.15;125687.94;4996106;28;20026;-80
2023/01/08 06:34:37;;;;;;;1.92;0.65;;;9.80;99.90;;;-144.05;71.75;125687.94;5013542;28;20029;-82
2023/01/08 06:37:03;;;;;;;1.10;0.77;;;9.70;99.90;;;-144.05;72.10;125687.94;5013323;28;20393;-81
2023/01/08 06:39:29;;;;;;;0.50;0.47;;;9.70;99.90;;;-144.05;72.21;125687.94;5013428;28;20026;-78
2023/01/08 06:41:54;;;;;;;1.55;0.57;;;9.70;99.90;;;-144.05;71.54;125687.94;5013406;28;20037;-80
2023/01/08 06:44:20;;;;;;;1.20;0.75;;;9.70;99.90;;;-144.05;71.50;125687.94;5011859;28;20508;-80
2023/01/08 06:46:47;;;;;;;0.90;0.60;;;9.70;99.90;;;-144.05;71.43;125687.94;4995732;28;20083;-80
2023/01/08 06:49:13;;;;;;;1.42;0.73;;;9.70;99.90;;;-144.05;71.75;125687.94;5013435;28;20030;-80
2023/01/08 06:51:39;;;;;;;2.63;0.70;;;9.70;99.90;;;-144.05;71.85;125687.94;5012960;28;20030;-79
2023/01/08 06:54:05;;;;;;;0.52;0.52;;;9.70;99.90;;;-144.05;71.84;125687.94;5013139;28;20057;-79
2023/01/08 06:56:31;;;;;;;1.20;0.68;;;9.70;99.90;;;-144.05;71.56;125687.94;5012986;28;20034;-78
2023/01/08 06:58:57;;;;;;;2.47;0.60;;;9.70;99.90;;;-144.05;71.67;125687.94;5012725;28;20049;-78
2023/01/08 07:01:22;;;;;;;1.02;0.68;;;9.70;99.90;;;-144.05;71.55;125687.94;5013032;28;20038;-82
2023/01/08 07:03:48;;;;;;;2.17;1.08;;;9.70;99.90;;;-144.05;71.32;125687.94;4994968;28;20033;-81
2023/01/08 07:06:19;;;;;;;1.73;0.77;;;9.70;99.90;;;-144.05;71.47;125687.94;5012997;28;20026;-81
2023/01/08 07:08:45;;;;;;;1.70;0.70;;;9.70;99.90;;;-144.05;71.21;125687.94;5014405;28;20093;-80
2023/01/08 07:11:12;;;;;;;0.95;0.70;;;9.70;99.90;;;-144.05;70.93;125687.94;5015295;28;20026;-81
2023/01/08 07:13:38;;;;;;;1.05;0.75;;;9.70;99.90;;;-144.05;71.08;125687.94;5012853;28;20101;-78
2023/01/08 07:16:12;;;;;;;0.60;0.57;;;9.70;99.90;;;-144.05;70.76;125687.94;5013394;28;20037;-78
2023/01/08 07:18:39;;;;;;;0.47;0.47;;;9.80;99.90;;;-144.05;70.90;125687.94;5013094;28;20041;-81
2023/01/08 07:21:07;;;;;;;0.55;0.52;;;9.80;99.90;;;-144.05;70.75;125687.94;4995821;28;20445;-80
2023/01/08 07:23:34;;;;;;;1.10;0.60;;;9.80;99.90;;;-144.05;70.42;125687.94;5013220;28;20109;-79
2023/01/08 07:26:08;;;;;;;1.00;0.60;;;9.90;99.90;;;-144.05;70.45;125687.94;5016727;28;20025;-79
2023/01/08 07:28:34;;;;;;;0.80;0.70;;;9.90;99.90;;;-144.05;70.40;125687.94;5017267;28;20097;-80
2023/01/08 07:31:05;;;;;;;1.38;0.68;;;9.80;99.90;;;-144.05;71.54;125687.94;4999528;28;20030;-79
2023/01/08 07:33:31;;;;;;;0.60;0.60;;;9.80;99.90;;;-144.05;72.38;125687.94;5018699;28;20030;-79
2023/01/08 07:35:57;;;;;;;1.50;0.60;;;9.70;99.90;;;-144.05;73.03;125687.94;5018302;28;20386;-80
2023/01/08 07:38:23;;;;;;;2.90;0.90;;;9.60;99.90;;;-144.05;73.65;125687.94;5015920;28;20030;-80
2023/01/08 07:40:49;;;;;;;1.17;0.90;;;9.60;99.90;;;-144.05;75.25;125687.94;5017205;28;20033;-79
2023/01/08 07:43:14;;;;;;;1.05;0.80;;;9.50;99.90;;;-144.05;75.60;125687.94;5017109;28;20022;-78
2023/01/08 07:45:41;;;;;;;0.80;0.75;;;9.40;99.90;;;-144.05;76.56;125687.94;5000114;28;20582;-79
2023/01/08 07:48:14;;;;;;;1.65;0.60;;;9.20;99.90;;;-144.05;76.39;125687.94;5017811;28;20135;-80
2023/01/08 07:50:42;;;;;;;1.20;0.60;;;9.10;99.90;;;-144.05;76.62;125687.94;5017948;28;20541;-79
2023/01/08 07:53:11;;;;;;;1.17;0.60;;;9.10;99.90;;;-144.05;76.79;125687.94;4999142;28;20033;-79
2023/01/08 07:55:37;;;;;;;2.47;0.35;;;9.10;99.90;;;-144.05;74.77;125687.94;5017586;28;20034;-78
2023/01/08 07:58:10;;;;;;;0.70;0.40;;;9.00;99.90;;;-144.05;74.17;125687.94;5017694;28;20037;-79
2023/01/08 08:00:37;;;;;;;0.95;0.50;;;8.90;99.90;;;-144.05;73.06;125687.94;5017852;28;20109;-80
2023/01/08 08:03:06;;;;;;;0.68;0.30;;;8.80;99.90;;;-144.05;73.28;125687.94;5018156;28;20034;-77
2023/01/08 08:05:34;;;;;;;1.80;0.70;;;8.80;99.90;;;-144.05;73.94;125687.94;5018418;28;20026;-80
2023/01/08 08:08:00;;;;;;;1.25;0.50;;;8.80;99.90;;;-144.05;74.11;125687.94;5017528;28;20022;-81
2023/01/08 08:10:26;;;;;;;2.97;0.90;;;8.70;99.90;;;-144.05;73.70;125687.94;5017063;28;20025;-80
2023/01/08 08:12:52;;;;;;;2.28;0.60;;;8.70;99.90;;;-144.05;74.20;125687.94;5017073;28;20108;-78
2023/01/08 08:15:18;;;;;;;1.60;0.52;;;8.70;99.90;;;-144.05;72.56;125687.94;5016714;28;20029;-79
2023/01/08 08:17:46;;;;;;;3.45;0.60;;;8.70;99.90;;;-144.05;71.70;125687.94;4999655;28;20111;-81
2023/01/08 08:20:13;;;;;;;0.55;0.30;;;8.70;99.90;;;-144.05;71.11;125687.94;5015783;28;20030;-81
2023/01/08 08:22:39;;;;;;;3.63;0.70;;;8.70;99.90;;;-144.05;70.76;125687.94;5016841;28;20124;-79
2023/01/08 08:25:05;;;;;;;1.92;0.60;;;8.70;99.90;;;-144.05;70.28;125687.94;5016611;28;20058;-80
2023/01/08 08:27:31;;;;;;;1.17;0.60;;;8.70;99.90;;;-144.05;70.50;125687.94;5017031;28;20390;-78
2023/01/08 08:29:57;;;;;;;2.17;0.40;;;8.70;99.90;;;-144.05;70.57;125687.94;5017795;28;20030;-78
2023/01/08 08:32:23;;;;;;;1.48;0.63;;;8.60;99.90;;;-144.05;69.78;125687.94;5017326;28;20037;-79
2023/01/08 08:34:49;;;;;;;4.57;0.50;;;8.60;99.90;;;-144.05;69.35;125687.94;4999083;28;20577;-80
2023/01/08 08:37:15;;;;;;;1.05;0.40;;;8.60;99.90;;;-144.05;69.41;125687.94;4998044;28;20026;-80
2023/01/08 08:39:41;;;;;;;3.50;0.73;;;8.60;99.90;;;-144.05;68.94;125687.94;4998684;28;20473;-80
2023/01/08 08:42:07;;;;;;;1.70;0.60;;;8.60;99.90;;;-144.05;68.80;125687.94;5017222;28;20021;-82
2023/01/08 08:44:33;;;;;;;1.50;0.40;;;8.60;99.90;;;-144.05;68.23;125687.94;5016828;28;20030;-79
2023/01/08 08:46:59;;;;;;;3.78;0.85;;;8.60;99.90;;;-144.05;67.30;125687.94;5020638;28;20128;-81
2023/01/08 08:49:25;;;;;;;2.60;0.88;;;8.60;99.90;;;-144.05;67.84;125687.94;5011919;28;20025;-79
2023/01/08 08:51:51;;;;;;;3.95;1.20;;;8.60;99.90;;;-144.05;67.45;125687.94;5007444;28;20022;-78
2023/01/08 08:54:17;;;;;;;3.13;0.60;;;8.50;99.90;;;-144.05;66.97;125687.94;5019079;28;20109;-79
2023/01/08 08:56:43;;;;;;;2.35;0.68;;;8.50;99.90;;;-144.05;67.09;125687.94;4999397;28;20461;-78
2023/01/08 08:59:11;;;;;;;3.85;0.93;;;8.50;99.90;;;-144.05;67.44;125687.94;5018703;28;20034;-80
2023/01/08 09:01:37;;;;;;;3.60;0.65;;;8.50;99.90;;;-144.05;67.04;125687.94;5015640;28;20541;-79
2023/01/08 09:04:03;;;;;;;3.42;0.70;;;8.50;99.90;;;-144.05;66.89;125687.94;5016543;28;20065;-80
2023/01/08 09:06:30;;;;;;;8.68;1.75;;;8.50;99.90;;;-144.05;66.79;125687.94;5015671;28;20026;-79
2023/01/08 09:08:56;;;;;;;2.75;0.60;;;8.50;99.90;;;-144.05;65.70;125687.94;5015748;28;20026;-81
2023/01/08 09:11:22;;;;;;;3.45;0.80;;;8.60;99.90;;;-144.05;65.22;125687.94;5016814;28;20034;-80
2023/01/08 09:13:48;;;;;;;4.47;1.48;;;8.70;99.90;;;-144.05;65.06;125687.94;5018526;28;20053;-83
2023/01/08 09:16:14;;;;;;;4.00;1.10;;;8.60;99.90;;;-144.05;64.32;125687.94;5017701;28;20041;-82
2023/01/08 09:18:40;;;;;;;5.57;0.85;;;8.70;99.90;;;-144.05;64.80;125687.94;4999818;28;20040;-82
2023/01/08 09:21:07;;;;;;;6.63;1.17;;;8.60;99.90;;;-144.05;64.50;125687.94;5016870;28;20105;-80
2023/01/08 09:23:34;;;;;;;9.80;1.48;;;8.50;99.90;;;-144.05;64.23;125687.94;5023017;28;20066;-80
2023/01/08 09:26:03;;;;;;;5.60;1.60;;;8.50;99.90;;;-144.05;64.63;125687.94;5006659;28;20101;-80
2023/01/08 09:28:30;;;;;;;10.52;1.45;;;8.50;99.90;;;-144.05;64.56;125687.94;5022404;28;20029;-81
2023/01/08 09:31:01;;;;;;;4.78;1.10;;;8.70;99.90;;;-144.05;64.01;125687.94;5023283;28;20077;-81
2023/01/08 09:33:28;;;;;;;6.50;1.40;;;8.80;99.90;;;-144.05;63.86;125687.94;5023319;28;20033;-81
2023/01/08 09:35:54;;;;;;;5.30;1.67;;;8.80;99.90;;;-144.05;63.26;125687.94;5025276;28;20026;-80
2023/01/08 09:38:20;;;;;;;3.30;1.27;;;9.20;99.90;;;-144.05;62.25;125687.94;5007455;28;20037;-80
2023/01/08 09:41:15;;;;;;;6.90;1.08;;;9.40;99.90;;;-144.05;60.91;125687.94;5025565;28;20162;-80
2023/01/08 09:43:49;;;;;;;7.03;1.58;;;9.60;99.90;;;-144.05;59.96;125687.94;5050868;22;20030;-75
2023/01/08 09:46:20;;;;;;;3.42;0.90;;;9.70;99.90;;;-144.05;60.23;125687.94;5057548;28;20033;-78
2023/01/08 09:48:50;;;;;;;8.85;1.83;;;9.90;99.90;;;-144.05;60.16;125687.94;5073359;28;20038;-77
2023/01/08 09:51:19;;;;;;;6.13;1.85;;;10.00;99.90;;;-144.05;59.71;125687.94;5075643;28;20035;-76
2023/01/08 09:53:56;;;;;;;5.13;1.40;;;10.20;99.90;;;-144.05;59.84;125687.94;5075573;28;20039;-77
2023/01/08 09:56:23;;;;;;;6.43;1.30;;;10.30;99.90;;;-144.05;59.31;125687.94;5075320;28;20024;-77
2023/01/08 09:58:54;;;;;;;5.63;1.15;;;10.20;99.90;;;-144.05;59.95;125687.94;5075666;28;20155;-75
2023/01/08 10:01:37;;;;;;;9.13;1.55;;;10.00;99.90;;;-144.05;60.94;125687.94;5074430;28;20502;-77
2023/01/08 10:04:28;;;;;;;6.40;1.45;;;10.00;99.90;;;-144.05;59.75;125687.94;5075186;28;20037;-76
2023/01/08 10:07:14;;;;;;;12.82;1.95;;;10.30;99.90;;;-144.05;59.00;125687.94;5074066;28;20112;-76
2023/01/08 10:09:40;;;;;;;10.38;1.38;;;10.80;99.90;;;-144.05;58.07;125687.94;5073177;28;20150;-77
2023/01/08 10:12:11;;;;;;;5.20;1.17;;;11.00;99.90;;;-144.05;57.35;125687.94;5075191;28;20486;-77
2023/01/08 10:14:46;;;;;;;4.50;1.20;;;11.20;99.90;;;-144.05;58.05;125687.94;5073964;28;20090;-77
2023/01/08 10:17:53;;;;;;;10.73;1.80;;;11.40;99.90;;;-144.05;57.24;125687.94;5074307;28;20047;-75